Time;durP1;ratioP1;P1;durP2;ratioP2;P2;SDS_P1;SDS_P2;PMS_P1;PMS_P2;Temp;Humidity;BMP_temperature;BMP_pressure;BME280_temperature;BME280_humidity;BME280_pressure;Samples;Min_cycle;Max_cycle;Signal;HPM_P1;HPM_P2
2021/09/26 00:01:08;;;;;;;27.87;20.27;;;;;;;;;;5026201;28;20182;-70
2021/09/26 00:03:33;;;;;;;29.00;19.67;;;;;;;;;;5029362;28;20459;-70
2021/09/26 00:05:58;;;;;;;27.33;19.83;;;;;;;;;;5021830;28;20428;-70
2021/09/26 00:08:23;;;;;;;26.80;20.02;;;;;;;;;;5012613;28;20656;-70
2021/09/26 00:10:48;;;;;;;29.40;22.02;;;;;;;;;;5013202;28;20356;-69
2021/09/26 00:13:14;;;;;;;25.15;19.10;;;;;;;;;;5006199;28;20214;-69
2021/09/26 00:15:39;;;;;;;27.33;20.10;;;;;;;;;;4995513;28;20569;-69
2021/09/26 00:18:04;;;;;;;31.30;21.25;;;;;;;;;;5010001;28;20202;-70
2021/09/26 00:20:29;;;;;;;26.63;19.25;;;;;;;;;;5017618;28;20280;-70
2021/09/26 00:22:54;;;;;;;29.58;21.52;;;;;;;;;;5020327;28;20675;-71
2021/09/26 00:25:20;;;;;;;28.90;21.48;;;;;;;;;;5021870;28;20179;-71
2021/09/26 00:27:45;;;;;;;26.88;20.60;;;;;;;;;;5010680;28;20580;-70
2021/09/26 00:30:14;;;;;;;27.85;19.80;;;;;;;;;;5003780;28;20615;-70
2021/09/26 00:32:40;;;;;;;24.58;20.05;;;;;;;;;;5012487;28;20618;-70
2021/09/26 00:35:05;;;;;;;26.88;19.42;;;;;;;;;;5009523;28;20174;-70
2021/09/26 00:37:30;;;;;;;25.17;20.25;;;;;;;;;;5008380;28;20751;-70
2021/09/26 00:39:55;;;;;;;27.00;20.63;;;;;;;;;;5013008;28;20178;-71
2021/09/26 00:42:21;;;;;;;23.98;18.63;;;;;;;;;;5029490;28;20434;-70
2021/09/26 00:44:46;;;;;;;29.10;21.13;;;;;;;;;;5030663;28;20664;-71
2021/09/26 00:47:12;;;;;;;27.48;20.17;;;;;;;;;;5036381;28;20214;-70
2021/09/26 00:49:37;;;;;;;30.85;19.60;;;;;;;;;;5040938;28;20185;-70
2021/09/26 00:52:02;;;;;;;23.90;20.15;;;;;;;;;;5044748;28;20252;-70
2021/09/26 00:54:27;;;;;;;26.80;19.70;;;;;;;;;;5040662;28;20265;-70
2021/09/26 00:56:52;;;;;;;25.15;19.27;;;;;;;;;;5023731;28;20206;-70
2021/09/26 00:59:18;;;;;;;30.42;21.27;;;;;;;;;;5034702;28;20178;-70
2021/09/26 01:01:44;;;;;;;30.50;20.88;;;;;;;;;;5040566;28;20213;-69
2021/09/26 01:04:09;;;;;;;27.10;21.05;;;;;;;;;;5037092;28;20178;-70
2021/09/26 01:06:34;;;;;;;26.00;19.77;;;;;;;;;;5033874;28;20225;-70
2021/09/26 01:09:06;;;;;;;25.20;19.00;;;;;;;;;;5025057;28;20436;-71
2021/09/26 01:11:37;;;;;;;27.30;19.98;;;;;;;;;;5038938;28;20509;-69
2021/09/26 01:14:06;;;;;;;26.40;19.88;;;;;;;;;;5042533;28;20190;-69
2021/09/26 01:16:34;;;;;;;26.30;20.70;;;;;;;;;;5039455;28;20277;-69
2021/09/26 01:19:12;;;;;;;25.08;19.35;;;;;;;;;;5034883;28;20193;-69
2021/09/26 01:21:40;;;;;;;30.63;20.50;;;;;;;;;;5025558;28;20182;-70
2021/09/26 01:24:24;;;;;;;27.10;19.40;;;;;;;;;;5025751;28;20178;-70
2021/09/26 01:26:52;;;;;;;28.35;20.48;;;;;;;;;;5026988;28;20213;-71
2021/09/26 01:29:41;;;;;;;27.80;19.73;;;;;;;;;;5027432;28;20187;-70
2021/09/26 01:32:06;;;;;;;25.83;20.00;;;;;;;;;;5025652;28;20245;-71
2021/09/26 01:34:38;;;;;;;30.02;20.27;;;;;;;;;;5027972;28;20209;-71
2021/09/26 01:37:09;;;;;;;27.98;22.02;;;;;;;;;;5029038;28;20212;-69
2021/09/26 01:39:40;;;;;;;29.42;20.92;;;;;;;;;;5029985;28;20261;-69
2021/09/26 01:42:17;;;;;;;27.85;20.63;;;;;;;;;;5027979;28;20193;-70
2021/09/26 01:44:48;;;;;;;28.38;21.63;;;;;;;;;;5023725;28;20232;-70
2021/09/26 01:47:15;;;;;;;28.58;21.88;;;;;;;;;;5026376;28;20210;-71
2021/09/26 01:49:44;;;;;;;29.80;21.10;;;;;;;;;;5013500;28;20178;-70
2021/09/26 01:52:18;;;;;;;29.60;21.05;;;;;;;;;;5021580;28;20210;-70
2021/09/26 01:54:43;;;;;;;30.70;22.00;;;;;;;;;;5025013;28;20184;-70
2021/09/26 01:57:09;;;;;;;30.52;22.10;;;;;;;;;;5023730;28;20576;-70
2021/09/26 01:59:34;;;;;;;34.50;23.25;;;;;;;;;;5022418;28;20569;-70
2021/09/26 02:02:02;;;;;;;28.30;21.75;;;;;;;;;;5023257;28;20195;-71
2021/09/26 02:04:28;;;;;;;31.95;23.13;;;;;;;;;;5024777;28;20178;-72
2021/09/26 02:09:26;;;;;;;33.22;22.38;;;;;;;;;;5003624;28;20221;-68
2021/09/26 02:11:52;;;;;;;35.33;22.50;;;;;;;;;;5001768;28;20207;-68
2021/09/26 02:14:18;;;;;;;28.30;21.85;;;;;;;;;;5007144;28;20183;-68
2021/09/26 02:16:43;;;;;;;31.08;22.98;;;;;;;;;;5012400;28;20190;-68
2021/09/26 02:19:09;;;;;;;30.52;22.30;;;;;;;;;;5005760;28;20716;-68
2021/09/26 02:21:35;;;;;;;33.45;22.48;;;;;;;;;;5008353;28;20214;-68
2021/09/26 02:24:01;;;;;;;29.50;22.13;;;;;;;;;;5007821;28;20660;-68
2021/09/26 02:26:28;;;;;;;30.92;23.02;;;;;;;;;;5009317;28;20644;-68
2021/09/26 02:28:53;;;;;;;28.25;21.95;;;;;;;;;;5008650;28;20210;-68
2021/09/26 02:31:18;;;;;;;28.80;21.33;;;;;;;;;;5003496;28;20179;-68
2021/09/26 02:33:46;;;;;;;35.40;22.35;;;;;;;;;;5006190;28;20203;-68
2021/09/26 02:36:13;;;;;;;28.15;19.85;;;;;;;;;;5010176;28;20179;-71
2021/09/26 02:38:38;;;;;;;30.85;21.60;;;;;;;;;;5007275;28;20577;-70
2021/09/26 02:41:10;;;;;;;27.98;20.90;;;;;;;;;;5008945;28;20223;-70
2021/09/26 02:43:35;;;;;;;31.13;22.92;;;;;;;;;;5010324;28;20224;-68
2021/09/26 02:46:10;;;;;;;27.48;20.75;;;;;;;;;;5000235;28;20187;-69
2021/09/26 02:48:36;;;;;;;29.35;21.83;;;;;;;;;;5000492;28;20447;-68
2021/09/26 02:51:02;;;;;;;30.10;22.88;;;;;;;;;;4998927;28;20680;-69
2021/09/26 02:53:27;;;;;;;29.23;20.13;;;;;;;;;;5004224;28;20234;-69
2021/09/26 02:55:53;;;;;;;25.02;19.33;;;;;;;;;;5007495;28;20221;-69
2021/09/26 02:58:19;;;;;;;33.15;23.88;;;;;;;;;;5009898;28;20194;-69
2021/09/26 03:00:45;;;;;;;27.95;21.15;;;;;;;;;;5006450;28;20179;-69
2021/09/26 03:03:12;;;;;;;28.08;21.05;;;;;;;;;;5004668;28;20187;-69
2021/09/26 03:05:37;;;;;;;31.38;22.70;;;;;;;;;;5011167;28;20183;-69
2021/09/26 03:08:03;;;;;;;25.02;20.05;;;;;;;;;;5010576;28;20214;-69
2021/09/26 03:10:29;;;;;;;27.08;21.38;;;;;;;;;;5010022;28;20601;-69
2021/09/26 03:12:54;;;;;;;27.25;20.05;;;;;;;;;;5009239;28;20197;-69
2021/09/26 03:15:20;;;;;;;27.98;20.77;;;;;;;;;;5012717;28;20185;-69
2021/09/26 03:17:45;;;;;;;24.58;18.65;;;;;;;;;;5012104;28;20684;-69
2021/09/26 03:20:10;;;;;;;26.10;19.58;;;;;;;;;;5011915;28;20182;-69
2021/09/26 03:22:36;;;;;;;26.35;19.70;;;;;;;;;;5010570;28;20688;-69
2021/09/26 03:25:01;;;;;;;27.67;20.73;;;;;;;;;;5010230;28;20568;-69
2021/09/26 03:27:26;;;;;;;29.05;20.25;;;;;;;;;;5012263;28;20241;-69
2021/09/26 03:29:51;;;;;;;25.17;19.48;;;;;;;;;;5010308;28;20270;-69
2021/09/26 03:32:17;;;;;;;24.48;20.23;;;;;;;;;;5010244;28;20494;-70
2021/09/26 03:34:42;;;;;;;27.00;19.67;;;;;;;;;;5011309;28;20645;-69
2021/09/26 03:37:08;;;;;;;22.70;18.40;;;;;;;;;;5011661;28;20241;-69
2021/09/26 03:39:34;;;;;;;24.55;18.58;;;;;;;;;;5010340;28;20186;-69
2021/09/26 03:41:59;;;;;;;28.60;20.10;;;;;;;;;;5007787;28;20191;-69
2021/09/26 03:44:24;;;;;;;21.35;17.95;;;;;;;;;;5010921;28;20594;-69
2021/09/26 03:46:50;;;;;;;24.10;19.10;;;;;;;;;;5006157;28;20179;-69
2021/09/26 03:49:15;;;;;;;22.50;17.80;;;;;;;;;;5010502;28;20202;-69
2021/09/26 03:51:42;;;;;;;22.85;19.05;;;;;;;;;;5003225;28;20589;-69
2021/09/26 03:54:07;;;;;;;22.85;19.40;;;;;;;;;;5005754;28;20179;-69
2021/09/26 03:56:32;;;;;;;23.73;18.30;;;;;;;;;;5004999;28;20364;-69
2021/09/26 03:58:57;;;;;;;23.20;19.38;;;;;;;;;;5001132;28;20203;-69
2021/09/26 04:01:23;;;;;;;19.93;16.47;;;;;;;;;;4999954;28;20353;-69
2021/09/26 04:03:48;;;;;;;23.52;18.48;;;;;;;;;;5004235;28;20428;-69
2021/09/26 04:06:13;;;;;;;22.00;18.23;;;;;;;;;;5006031;28;20187;-69
2021/09/26 04:08:39;;;;;;;26.40;18.55;;;;;;;;;;5005466;28;20740;-69
2021/09/26 04:11:05;;;;;;;21.67;18.05;;;;;;;;;;5009310;28;20763;-69
2021/09/26 04:13:30;;;;;;;24.73;18.77;;;;;;;;;;5006790;28;20719;-68
2021/09/26 04:15:55;;;;;;;21.77;17.75;;;;;;;;;;5007599;28;20184;-69
2021/09/26 04:18:21;;;;;;;23.40;18.70;;;;;;;;;;5011130;28;20195;-68
2021/09/26 04:20:46;;;;;;;21.58;18.00;;;;;;;;;;5008098;28;20194;-69
2021/09/26 04:23:11;;;;;;;21.35;18.83;;;;;;;;;;5009293;28;20183;-69
2021/09/26 04:25:36;;;;;;;23.15;19.50;;;;;;;;;;5010929;28;20496;-69
2021/09/26 04:28:02;;;;;;;22.53;18.77;;;;;;;;;;5008418;28;20218;-68
2021/09/26 04:30:27;;;;;;;23.73;19.02;;;;;;;;;;5009452;28;20428;-69
2021/09/26 04:32:52;;;;;;;22.50;19.05;;;;;;;;;;5009407;28;20217;-69
2021/09/26 04:35:17;;;;;;;21.20;17.55;;;;;;;;;;5011367;28;20606;-69
2021/09/26 04:37:43;;;;;;;26.13;18.73;;;;;;;;;;5010875;28;20273;-69
2021/09/26 04:40:08;;;;;;;26.75;19.10;;;;;;;;;;5010400;28;20432;-69
2021/09/26 04:42:33;;;;;;;21.23;18.05;;;;;;;;;;5011545;28;20186;-69
2021/09/26 04:44:59;;;;;;;26.77;20.15;;;;;;;;;;5012147;28;20187;-70
2021/09/26 04:47:24;;;;;;;21.85;18.70;;;;;;;;;;5012291;28;20229;-69
2021/09/26 04:49:49;;;;;;;25.48;18.73;;;;;;;;;;5011901;28;20182;-69
2021/09/26 04:52:15;;;;;;;24.02;18.38;;;;;;;;;;5008740;28;20684;-69
2021/09/26 04:54:40;;;;;;;28.25;20.30;;;;;;;;;;5004162;28;20258;-69
2021/09/26 04:57:05;;;;;;;24.10;18.50;;;;;;;;;;5009830;28;20268;-69
2021/09/26 04:59:30;;;;;;;23.90;18.63;;;;;;;;;;5010085;28;20191;-70
2021/09/26 05:01:55;;;;;;;24.08;19.48;;;;;;;;;;5002235;28;20221;-69
2021/09/26 05:04:21;;;;;;;21.85;18.35;;;;;;;;;;5008887;28;20179;-70
2021/09/26 05:06:47;;;;;;;24.63;19.20;;;;;;;;;;5002925;28;20250;-69
2021/09/26 05:09:12;;;;;;;23.45;17.83;;;;;;;;;;5005358;28;20222;-69
2021/09/26 05:11:37;;;;;;;23.23;18.52;;;;;;;;;;5008366;28;20478;-69
2021/09/26 05:14:02;;;;;;;24.35;17.90;;;;;;;;;;5006043;28;20178;-70
2021/09/26 05:16:27;;;;;;;21.77;17.83;;;;;;;;;;5007994;28;20197;-70
2021/09/26 05:18:53;;;;;;;24.23;18.13;;;;;;;;;;5002413;28;20564;-69
2021/09/26 05:21:18;;;;;;;22.73;18.67;;;;;;;;;;5008524;28;20194;-69
2021/09/26 05:23:43;;;;;;;21.95;18.90;;;;;;;;;;5009589;28;20873;-69
2021/09/26 05:26:09;;;;;;;19.58;16.75;;;;;;;;;;5007501;28;20256;-70
2021/09/26 05:28:34;;;;;;;21.15;17.55;;;;;;;;;;5006098;28;20209;-70
2021/09/26 05:31:00;;;;;;;23.73;18.77;;;;;;;;;;5007652;28;20190;-70
2021/09/26 05:33:28;;;;;;;22.17;18.35;;;;;;;;;;5008776;28;20280;-71
2021/09/26 05:35:53;;;;;;;25.70;18.73;;;;;;;;;;5007761;28;20171;-70
2021/09/26 05:38:18;;;;;;;23.23;18.15;;;;;;;;;;5007940;28;20228;-70
2021/09/26 05:40:43;;;;;;;22.77;18.17;;;;;;;;;;5007049;28;20183;-70
2021/09/26 05:43:09;;;;;;;28.30;20.38;;;;;;;;;;5008523;28;20198;-70
2021/09/26 05:45:34;;;;;;;24.83;19.65;;;;;;;;;;5009475;28;20318;-70
2021/09/26 05:47:59;;;;;;;23.80;20.40;;;;;;;;;;5007104;28;20677;-70
2021/09/26 05:50:24;;;;;;;24.63;19.83;;;;;;;;;;5005645;28;20178;-70
2021/09/26 05:52:50;;;;;;;30.15;18.30;;;;;;;;;;5000431;28;20217;-70
2021/09/26 05:55:15;;;;;;;21.73;18.77;;;;;;;;;;5001042;28;20213;-70
2021/09/26 05:57:40;;;;;;;23.15;17.65;;;;;;;;;;5001599;28;20286;-70
2021/09/26 06:00:06;;;;;;;24.97;19.20;;;;;;;;;;5000759;28;20645;-69
2021/09/26 06:02:33;;;;;;;23.63;19.20;;;;;;;;;;4994482;28;20587;-70
2021/09/26 06:04:58;;;;;;;26.17;21.52;;;;;;;;;;5006962;28;20506;-70
2021/09/26 06:07:23;;;;;;;23.57;19.33;;;;;;;;;;5005970;28;20261;-70
2021/09/26 06:09:48;;;;;;;23.38;18.08;;;;;;;;;;5005652;28;20941;-70
2021/09/26 06:12:14;;;;;;;24.50;20.00;;;;;;;;;;5006820;28;20294;-70
2021/09/26 06:14:39;;;;;;;25.17;19.05;;;;;;;;;;5008060;28;20426;-70
2021/09/26 06:17:04;;;;;;;22.45;19.30;;;;;;;;;;5000972;28;20193;-70
2021/09/26 06:19:30;;;;;;;20.42;18.23;;;;;;;;;;5004515;28;20180;-70
2021/09/26 06:21:55;;;;;;;25.27;19.60;;;;;;;;;;5005059;28;20175;-69
2021/09/26 06:24:20;;;;;;;22.30;18.90;;;;;;;;;;5012240;28;20214;-70
2021/09/26 06:26:45;;;;;;;25.92;19.35;;;;;;;;;;5014824;28;20284;-70
2021/09/26 06:29:10;;;;;;;24.25;18.85;;;;;;;;;;5014653;28;20234;-70
2021/09/26 06:31:36;;;;;;;24.20;20.05;;;;;;;;;;5013693;28;20712;-70
2021/09/26 06:34:01;;;;;;;20.55;17.05;;;;;;;;;;5015182;28;20651;-71
2021/09/26 06:36:27;;;;;;;21.95;19.63;;;;;;;;;;5015037;28;20171;-70
2021/09/26 06:38:52;;;;;;;23.85;19.17;;;;;;;;;;5013183;28;20664;-70
2021/09/26 06:41:18;;;;;;;21.33;19.02;;;;;;;;;;5015045;28;20179;-70
2021/09/26 06:43:44;;;;;;;20.88;18.48;;;;;;;;;;5014588;28;20262;-70
2021/09/26 06:46:09;;;;;;;21.92;19.00;;;;;;;;;;5007182;28;20597;-70
2021/09/26 06:48:34;;;;;;;27.42;19.50;;;;;;;;;;5014380;28;20209;-71
2021/09/26 06:50:59;;;;;;;19.83;17.15;;;;;;;;;;5014630;28;20167;-70
2021/09/26 06:53:24;;;;;;;22.73;19.40;;;;;;;;;;5014185;28;20191;-70
2021/09/26 06:55:50;;;;;;;23.07;18.80;;;;;;;;;;5014856;28;20291;-70
2021/09/26 06:58:15;;;;;;;23.52;18.73;;;;;;;;;;5014142;28;20519;-70
2021/09/26 07:00:40;;;;;;;24.10;19.95;;;;;;;;;;5014223;28;20171;-70
2021/09/26 07:03:05;;;;;;;21.27;18.83;;;;;;;;;;5006688;28;20640;-70
2021/09/26 07:05:30;;;;;;;21.75;17.55;;;;;;;;;;5006852;28;20175;-70
2021/09/26 07:07:56;;;;;;;19.90;17.37;;;;;;;;;;5012621;28;20290;-70
2021/09/26 07:10:21;;;;;;;21.97;19.10;;;;;;;;;;5011822;28;20900;-70
2021/09/26 07:12:46;;;;;;;20.02;17.92;;;;;;;;;;5012571;28;20519;-69
2021/09/26 07:15:11;;;;;;;21.80;18.33;;;;;;;;;;5011922;28;20279;-70
2021/09/26 07:17:37;;;;;;;22.90;18.38;;;;;;;;;;5011252;28;20269;-70
2021/09/26 07:20:03;;;;;;;22.20;18.15;;;;;;;;;;5007850;28;20190;-69
2021/09/26 07:22:28;;;;;;;20.83;17.67;;;;;;;;;;5010519;28;20182;-70
2021/09/26 07:24:53;;;;;;;22.00;17.92;;;;;;;;;;5002207;28;20237;-70
2021/09/26 07:27:22;;;;;;;19.65;16.42;;;;;;;;;;5011430;28;20226;-70
2021/09/26 07:29:47;;;;;;;21.17;18.30;;;;;;;;;;5010599;28;20265;-69
2021/09/26 07:32:13;;;;;;;20.73;18.50;;;;;;;;;;5010878;28;20768;-70
2021/09/26 07:34:39;;;;;;;19.55;16.58;;;;;;;;;;5008903;28;20179;-70
2021/09/26 07:37:04;;;;;;;21.08;17.98;;;;;;;;;;5009083;28;20254;-70
2021/09/26 07:39:30;;;;;;;21.63;18.00;;;;;;;;;;5007239;28;20281;-70
2021/09/26 07:41:55;;;;;;;18.35;16.30;;;;;;;;;;5002774;28;20230;-70
2021/09/26 07:44:20;;;;;;;19.60;17.50;;;;;;;;;;5008020;28;20206;-70
2021/09/26 07:46:46;;;;;;;19.40;16.90;;;;;;;;;;5008557;28;20808;-70
2021/09/26 07:49:11;;;;;;;19.15;16.58;;;;;;;;;;5009649;28;20199;-70
2021/09/26 07:51:36;;;;;;;21.20;16.83;;;;;;;;;;5000706;28;20560;-70
2021/09/26 07:54:01;;;;;;;19.98;16.90;;;;;;;;;;4997953;28;20226;-69
2021/09/26 07:56:27;;;;;;;18.70;16.70;;;;;;;;;;5006811;28;20722;-69
2021/09/26 07:58:52;;;;;;;19.75;17.65;;;;;;;;;;5006892;28;20210;-70
2021/09/26 08:01:18;;;;;;;19.33;17.23;;;;;;;;;;5002122;28;20182;-70
2021/09/26 08:03:43;;;;;;;19.08;16.25;;;;;;;;;;5000231;28;20428;-70
2021/09/26 08:06:08;;;;;;;24.88;18.13;;;;;;;;;;4999831;28;20532;-70
2021/09/26 08:08:35;;;;;;;19.67;17.57;;;;;;;;;;5000324;28;20211;-70
2021/09/26 08:11:02;;;;;;;25.48;16.70;;;;;;;;;;5000685;28;20435;-70
2021/09/26 08:13:27;;;;;;;19.23;17.17;;;;;;;;;;5002907;28;20672;-70
2021/09/26 08:15:52;;;;;;;18.90;16.73;;;;;;;;;;5003437;28;20202;-70
2021/09/26 08:18:18;;;;;;;22.27;16.57;;;;;;;;;;5003348;28;20191;-70
2021/09/26 08:20:43;;;;;;;21.02;17.33;;;;;;;;;;5002377;28;20507;-70
2021/09/26 08:23:08;;;;;;;23.50;17.55;;;;;;;;;;5002513;28;20241;-70
2021/09/26 08:25:33;;;;;;;19.08;15.48;;;;;;;;;;5002802;28;20179;-70
2021/09/26 08:27:59;;;;;;;19.58;17.13;;;;;;;;;;5002666;28;20585;-70
2021/09/26 08:30:24;;;;;;;18.90;16.90;;;;;;;;;;5002686;28;20210;-69
2021/09/26 08:32:49;;;;;;;18.55;16.65;;;;;;;;;;5005375;28;20468;-70
2021/09/26 08:35:15;;;;;;;19.33;16.63;;;;;;;;;;5009889;28;20174;-70
2021/09/26 08:37:40;;;;;;;17.17;15.38;;;;;;;;;;5009370;28;20692;-70
2021/09/26 08:40:06;;;;;;;17.17;15.52;;;;;;;;;;5006767;28;20314;-70
2021/09/26 08:42:33;;;;;;;20.10;16.55;;;;;;;;;;5012677;28;21062;-70
2021/09/26 08:44:58;;;;;;;17.55;15.80;;;;;;;;;;5012213;28;20183;-70
2021/09/26 08:47:23;;;;;;;16.50;14.80;;;;;;;;;;5011183;28;20691;-70
2021/09/26 08:49:49;;;;;;;16.58;14.88;;;;;;;;;;5008561;28;20202;-69
2021/09/26 08:52:14;;;;;;;17.27;15.00;;;;;;;;;;5010039;28;20230;-70
2021/09/26 08:54:40;;;;;;;17.30;15.50;;;;;;;;;;5002617;28;20286;-70
2021/09/26 08:57:05;;;;;;;16.48;14.82;;;;;;;;;;5002175;28;20736;-70
2021/09/26 08:59:31;;;;;;;18.20;15.32;;;;;;;;;;5004171;28;20495;-70
2021/09/26 09:01:56;;;;;;;16.60;14.93;;;;;;;;;;5009427;28;20236;-70
2021/09/26 09:04:37;;;;;;;16.38;14.68;;;;;;;;;;5009065;28;20191;-70
2021/09/26 09:07:03;;;;;;;17.25;15.45;;;;;;;;;;5006546;28;20179;-70
2021/09/26 09:09:28;;;;;;;18.90;16.08;;;;;;;;;;5008445;28;20194;-70
2021/09/26 09:12:06;;;;;;;18.33;16.37;;;;;;;;;;4997034;28;20221;-70
2021/09/26 09:14:50;;;;;;;16.92;14.90;;;;;;;;;;5005414;28;20948;-70
2021/09/26 09:17:24;;;;;;;17.00;15.25;;;;;;;;;;5006477;28;20202;-71
2021/09/26 09:20:09;;;;;;;25.08;22.58;;;;;;;;;;5006240;28;20248;-70
2021/09/26 09:22:34;;;;;;;19.98;18.00;;;;;;;;;;5004573;28;20260;-70
2021/09/26 09:24:59;;;;;;;20.23;16.93;;;;;;;;;;5006504;28;20229;-70
2021/09/26 09:27:25;;;;;;;18.07;16.17;;;;;;;;;;5008085;28;20610;-70
2021/09/26 09:29:50;;;;;;;24.40;17.52;;;;;;;;;;5008300;28;20440;-70
2021/09/26 09:32:17;;;;;;;20.80;18.77;;;;;;;;;;5005976;28;20217;-71
2021/09/26 09:34:42;;;;;;;21.98;18.10;;;;;;;;;;4992210;28;21072;-70
2021/09/26 09:37:12;;;;;;;21.00;16.17;;;;;;;;;;4997434;28;20183;-70
2021/09/26 09:39:37;;;;;;;18.08;16.35;;;;;;;;;;4993903;28;20191;-70
2021/09/26 09:42:16;;;;;;;18.67;15.95;;;;;;;;;;4994931;28;20182;-70
2021/09/26 09:44:44;;;;;;;18.08;16.20;;;;;;;;;;4998961;28;20178;-70
2021/09/26 09:47:09;;;;;;;18.50;16.60;;;;;;;;;;4997648;28;20187;-70
2021/09/26 09:49:34;;;;;;;16.70;14.87;;;;;;;;;;4996452;28;20684;-70
2021/09/26 09:52:02;;;;;;;17.27;15.57;;;;;;;;;;4997882;28;20560;-70
2021/09/26 09:54:28;;;;;;;19.63;17.58;;;;;;;;;;4998595;28;20829;-70
2021/09/26 09:56:54;;;;;;;17.50;15.80;;;;;;;;;;4997036;28;20178;-70
2021/09/26 09:59:30;;;;;;;20.50;16.25;;;;;;;;;;4998879;28;20198;-70
2021/09/26 10:01:55;;;;;;;17.95;16.05;;;;;;;;;;4996042;28;20644;-70
2021/09/26 10:04:22;;;;;;;16.97;15.17;;;;;;;;;;4999183;28;20250;-70
2021/09/26 10:06:47;;;;;;;18.40;16.00;;;;;;;;;;4999229;28;21022;-71
2021/09/26 10:09:25;;;;;;;17.52;15.82;;;;;;;;;;4996494;28;20293;-70
2021/09/26 10:11:50;;;;;;;16.80;15.02;;;;;;;;;;5001025;28;20198;-70
2021/09/26 10:14:16;;;;;;;17.80;16.00;;;;;;;;;;5000019;28;20228;-70
2021/09/26 10:16:42;;;;;;;17.27;15.48;;;;;;;;;;4999152;28;20444;-70
2021/09/26 10:19:07;;;;;;;17.20;15.50;;;;;;;;;;4996043;28;20242;-70
2021/09/26 10:21:32;;;;;;;16.88;15.07;;;;;;;;;;4998350;28;20554;-70
2021/09/26 10:23:58;;;;;;;17.80;15.93;;;;;;;;;;4997937;28;20624;-70
2021/09/26 10:26:26;;;;;;;19.75;15.38;;;;;;;;;;4998689;28;20241;-70
2021/09/26 10:28:55;;;;;;;18.52;14.95;;;;;;;;;;4998874;28;20622;-70
2021/09/26 10:31:23;;;;;;;21.55;15.90;;;;;;;;;;4999225;28;20167;-70
2021/09/26 10:33:49;;;;;;;17.15;15.45;;;;;;;;;;4998509;28;20230;-70
2021/09/26 10:36:18;;;;;;;17.92;15.73;;;;;;;;;;5004668;28;20179;-70
2021/09/26 10:38:44;;;;;;;15.18;13.73;;;;;;;;;;5008302;28;20294;-70
2021/09/26 10:41:10;;;;;;;15.98;14.15;;;;;;;;;;5007051;28;20201;-71
2021/09/26 10:43:35;;;;;;;14.48;13.15;;;;;;;;;;5004015;28;20613;-71
2021/09/26 10:46:13;;;;;;;15.27;13.80;;;;;;;;;;5008701;28;20599;-71
2021/09/26 10:49:08;;;;;;;16.33;14.23;;;;;;;;;;5010284;28;20687;-70
2021/09/26 10:51:41;;;;;;;14.40;12.80;;;;;;;;;;5007550;28;20194;-70
2021/09/26 10:54:25;;;;;;;14.80;13.35;;;;;;;;;;5010461;28;20721;-70
2021/09/26 10:57:12;;;;;;;16.85;13.38;;;;;;;;;;5010492;28;20171;-70
2021/09/26 10:59:48;;;;;;;14.00;12.70;;;;;;;;;;5006233;28;20181;-70
2021/09/26 11:02:24;;;;;;;15.65;14.07;;;;;;;;;;5007787;28;20190;-70
2021/09/26 11:04:56;;;;;;;13.48;11.95;;;;;;;;;;5007725;28;20309;-70
2021/09/26 11:07:23;;;;;;;12.88;11.40;;;;;;;;;;5007795;28;20241;-70
2021/09/26 11:09:52;;;;;;;14.70;13.20;;;;;;;;;;5003644;28;20237;-70
2021/09/26 11:12:36;;;;;;;16.45;13.43;;;;;;;;;;5010140;28;20289;-70
2021/09/26 11:15:10;;;;;;;15.60;12.50;;;;;;;;;;5009262;28;20182;-70
2021/09/26 11:17:41;;;;;;;14.30;12.63;;;;;;;;;;5010017;28;20668;-71
2021/09/26 11:20:06;;;;;;;16.75;14.90;;;;;;;;;;5006325;28;20187;-70
2021/09/26 11:22:32;;;;;;;16.98;15.25;;;;;;;;;;5001574;28;20709;-70
2021/09/26 11:24:58;;;;;;;17.37;14.97;;;;;;;;;;4999607;28;20582;-70
2021/09/26 11:27:30;;;;;;;15.23;13.63;;;;;;;;;;4999246;28;20294;-70
2021/09/26 11:30:05;;;;;;;16.15;14.55;;;;;;;;;;5000777;28;20191;-70
2021/09/26 11:32:33;;;;;;;16.90;15.20;;;;;;;;;;5001215;28;20198;-70
2021/09/26 11:35:00;;;;;;;15.38;13.88;;;;;;;;;;5001612;28;20184;-70
2021/09/26 11:37:35;;;;;;;17.05;15.32;;;;;;;;;;5002051;28;20237;-70
2021/09/26 11:40:02;;;;;;;15.88;14.20;;;;;;;;;;5002146;28;20612;-70
2021/09/26 11:42:29;;;;;;;15.85;14.25;;;;;;;;;;5000276;28;20554;-70
2021/09/26 11:44:55;;;;;;;16.63;15.02;;;;;;;;;;4998428;28;20186;-70
2021/09/26 11:47:21;;;;;;;14.00;12.68;;;;;;;;;;5001030;28;20298;-70
2021/09/26 11:49:46;;;;;;;13.02;11.73;;;;;;;;;;4998953;28;20262;-70
2021/09/26 11:52:11;;;;;;;12.47;11.27;;;;;;;;;;4999471;28;20217;-70
2021/09/26 11:54:36;;;;;;;13.77;12.35;;;;;;;;;;5000251;28;20671;-71
2021/09/26 11:57:02;;;;;;;13.43;12.05;;;;;;;;;;5001849;28;20175;-70
2021/09/26 11:59:35;;;;;;;13.35;12.05;;;;;;;;;;5001100;28;20186;-71
2021/09/26 12:02:09;;;;;;;13.23;11.93;;;;;;;;;;5001176;28;20218;-70
2021/09/26 12:04:35;;;;;;;17.35;13.35;;;;;;;;;;5003607;28;20179;-70
2021/09/26 12:07:03;;;;;;;15.00;13.45;;;;;;;;;;5002655;28;20190;-70
2021/09/26 12:09:54;;;;;;;15.55;13.20;;;;;;;;;;5001400;28;20195;-70
2021/09/26 12:12:22;;;;;;;14.93;12.70;;;;;;;;;;5000527;28;20723;-70
2021/09/26 12:14:49;;;;;;;13.88;12.50;;;;;;;;;;5000001;28;20544;-70
2021/09/26 12:17:21;;;;;;;14.95;13.35;;;;;;;;;;5003698;28;20225;-71
2021/09/26 12:19:47;;;;;;;13.90;12.50;;;;;;;;;;5001210;28;20704;-71
2021/09/26 12:22:14;;;;;;;15.88;14.27;;;;;;;;;;5001484;28;20183;-70
2021/09/26 12:24:53;;;;;;;15.45;13.85;;;;;;;;;;5001017;28;20182;-70
2021/09/26 12:27:28;;;;;;;14.10;12.70;;;;;;;;;;4998410;28;20196;-70
2021/09/26 12:29:56;;;;;;;15.15;13.65;;;;;;;;;;5001587;28;20765;-70
2021/09/26 12:32:24;;;;;;;15.88;13.75;;;;;;;;;;5001720;28;20696;-70
2021/09/26 12:34:49;;;;;;;14.75;13.32;;;;;;;;;;5003856;28;20269;-71
2021/09/26 12:37:20;;;;;;;14.82;13.43;;;;;;;;;;5007758;28;20720;-70
2021/09/26 12:39:50;;;;;;;14.32;12.93;;;;;;;;;;5011640;28;20201;-70
2021/09/26 12:42:20;;;;;;;15.50;13.57;;;;;;;;;;5012085;28;20581;-70
2021/09/26 12:44:46;;;;;;;15.00;13.50;;;;;;;;;;5012924;28;20175;-71
2021/09/26 12:47:15;;;;;;;18.25;14.18;;;;;;;;;;5011403;28;20202;-70
2021/09/26 12:49:41;;;;;;;18.40;13.27;;;;;;;;;;5012034;28;20179;-70
2021/09/26 12:52:10;;;;;;;15.20;12.30;;;;;;;;;;5019129;28;20191;-71
2021/09/26 12:54:36;;;;;;;15.25;13.75;;;;;;;;;;5011273;28;20183;-70
2021/09/26 12:57:12;;;;;;;16.48;12.95;;;;;;;;;;5007386;28;20259;-70
2021/09/26 12:59:39;;;;;;;14.23;11.90;;;;;;;;;;5007207;28;20176;-70
2021/09/26 13:02:14;;;;;;;14.10;12.32;;;;;;;;;;5007890;28;20670;-70
2021/09/26 13:04:41;;;;;;;15.85;13.20;;;;;;;;;;5007976;28;20183;-70
2021/09/26 13:07:06;;;;;;;15.57;13.63;;;;;;;;;;5009485;28;20186;-70
2021/09/26 13:09:37;;;;;;;13.95;12.52;;;;;;;;;;5006654;28;20691;-70
2021/09/26 13:12:24;;;;;;;13.75;12.27;;;;;;;;;;5008424;28;20210;-70
2021/09/26 13:15:22;;;;;;;15.63;11.20;;;;;;;;;;4996646;28;20175;-70
2021/09/26 13:17:49;;;;;;;12.77;11.50;;;;;;;;;;4987977;28;20301;-70
2021/09/26 13:20:14;;;;;;;14.80;13.30;;;;;;;;;;5001100;28;20183;-70
2021/09/26 13:22:39;;;;;;;15.57;13.68;;;;;;;;;;5001696;28;20601;-70
2021/09/26 13:25:08;;;;;;;17.23;14.10;;;;;;;;;;5014914;28;20282;-70
2021/09/26 13:27:38;;;;;;;17.05;13.98;;;;;;;;;;4999427;28;21682;-70
2021/09/26 13:30:22;;;;;;;15.27;13.68;;;;;;;;;;4999629;28;20278;-70
2021/09/26 13:32:53;;;;;;;18.48;14.48;;;;;;;;;;4999270;28;20240;-70
2021/09/26 13:35:20;;;;;;;14.82;13.25;;;;;;;;;;4999228;28;20668;-70
2021/09/26 13:38:03;;;;;;;16.35;14.80;;;;;;;;;;4999997;28;20198;-69
2021/09/26 13:40:29;;;;;;;18.27;16.38;;;;;;;;;;4997710;28;20183;-70
2021/09/26 13:42:57;;;;;;;16.40;14.68;;;;;;;;;;4997189;28;20189;-70
2021/09/26 13:45:22;;;;;;;19.95;15.20;;;;;;;;;;4999255;28;20580;-70
2021/09/26 13:47:48;;;;;;;16.15;14.48;;;;;;;;;;4999349;28;20702;-70
2021/09/26 13:50:14;;;;;;;14.55;13.15;;;;;;;;;;4999268;28;20196;-70
2021/09/26 13:52:40;;;;;;;15.90;14.40;;;;;;;;;;4995931;28;20207;-70
2021/09/26 13:55:06;;;;;;;13.98;12.57;;;;;;;;;;4997879;28;20207;-70
2021/09/26 13:57:32;;;;;;;16.73;13.80;;;;;;;;;;4999693;28;20199;-70
2021/09/26 13:59:57;;;;;;;16.08;14.57;;;;;;;;;;5001200;28;20178;-70
2021/09/26 14:02:23;;;;;;;15.65;13.77;;;;;;;;;;4995319;28;20557;-70
2021/09/26 14:04:49;;;;;;;14.73;13.18;;;;;;;;;;4997878;28;20207;-70
2021/09/26 14:09:43;;;;;;;14.25;12.90;;;;;;;;;;5015983;28;20249;-70
2021/09/26 14:12:09;;;;;;;13.80;12.47;;;;;;;;;;5016702;28;20190;-72
2021/09/26 14:14:37;;;;;;;15.55;12.07;;;;;;;;;;5020775;28;21020;-70
2021/09/26 14:17:02;;;;;;;11.35;10.25;;;;;;;;;;5020765;28;20588;-70
2021/09/26 14:19:27;;;;;;;10.80;9.75;;;;;;;;;;5008486;28;20201;-71
2021/09/26 14:21:53;;;;;;;10.50;8.60;;;;;;;;;;5007820;28;20175;-70